sensor_id;sensor_type;location;lat;lon;timestamp;P1;durP1;ratioP1;P2;durP2;ratioP2
52067;SDS011;60237;52.338;21.228;2023-08-07T00:01:56;798.17;;;712.83;;
52067;SDS011;60237;52.338;21.228;2023-08-07T00:04:23;780.25;;;700.63;;
52067;SDS011;60237;52.338;21.228;2023-08-07T00:06:50;786.08;;;705.92;;
52067;SDS011;60237;52.338;21.228;2023-08-07T00:09:16;805.05;;;719.03;;
52067;SDS011;60237;52.338;21.228;2023-08-07T00:11:42;772.85;;;692.65;;
52067;SDS011;60237;52.338;21.228;2023-08-07T00:14:09;776.47;;;694.75;;
52067;SDS011;60237;52.338;21.228;2023-08-07T00:16:36;786.60;;;705.75;;
52067;SDS011;60237;52.338;21.228;2023-08-07T00:19:02;774.40;;;693.33;;
52067;SDS011;60237;52.338;21.228;2023-08-07T00:21:29;780.38;;;699.25;;
52067;SDS011;60237;52.338;21.228;2023-08-07T00:23:56;767.63;;;688.03;;
52067;SDS011;60237;52.338;21.228;2023-08-07T00:26:22;772.40;;;690.97;;
52067;SDS011;60237;52.338;21.228;2023-08-07T00:28:49;765.72;;;685.38;;
52067;SDS011;60237;52.338;21.228;2023-08-07T00:31:15;776.70;;;695.13;;
52067;SDS011;60237;52.338;21.228;2023-08-07T00:33:42;764.45;;;683.28;;
52067;SDS011;60237;52.338;21.228;2023-08-07T00:36:09;766.47;;;686.60;;
52067;SDS011;60237;52.338;21.228;2023-08-07T00:38:35;748.70;;;668.80;;
52067;SDS011;60237;52.338;21.228;2023-08-07T00:41:02;768.83;;;684.92;;
52067;SDS011;60237;52.338;21.228;2023-08-07T00:43:29;743.05;;;665.05;;
52067;SDS011;60237;52.338;21.228;2023-08-07T00:45:55;756.85;;;677.85;;
52067;SDS011;60237;52.338;21.228;2023-08-07T00:48:22;760.00;;;678.92;;
52067;SDS011;60237;52.338;21.228;2023-08-07T00:50:49;754.33;;;674.72;;
52067;SDS011;60237;52.338;21.228;2023-08-07T00:53:17;740.47;;;661.15;;
52067;SDS011;60237;52.338;21.228;2023-08-07T00:55:43;750.75;;;669.17;;
52067;SDS011;60237;52.338;21.228;2023-08-07T00:58:10;734.17;;;655.55;;
52067;SDS011;60237;52.338;21.228;2023-08-07T01:00:37;740.45;;;660.72;;
52067;SDS011;60237;52.338;21.228;2023-08-07T01:03:07;751.35;;;670.03;;
52067;SDS011;60237;52.338;21.228;2023-08-07T01:05:34;741.90;;;662.67;;
52067;SDS011;60237;52.338;21.228;2023-08-07T01:08:01;746.38;;;664.42;;
52067;SDS011;60237;52.338;21.228;2023-08-07T01:13:26;745.95;;;666.05;;
52067;SDS011;60237;52.338;21.228;2023-08-07T01:15:55;732.42;;;653.72;;
52067;SDS011;60237;52.338;21.228;2023-08-07T01:18:22;739.95;;;660.70;;
52067;SDS011;60237;52.338;21.228;2023-08-07T01:20:49;726.70;;;648.47;;
52067;SDS011;60237;52.338;21.228;2023-08-07T01:23:15;735.17;;;655.97;;
52067;SDS011;60237;52.338;21.228;2023-08-07T01:25:42;753.65;;;673.55;;
52067;SDS011;60237;52.338;21.228;2023-08-07T01:30:42;729.58;;;650.67;;
52067;SDS011;60237;52.338;21.228;2023-08-07T01:33:19;729.03;;;650.67;;
52067;SDS011;60237;52.338;21.228;2023-08-07T01:35:51;739.17;;;659.40;;
52067;SDS011;60237;52.338;21.228;2023-08-07T01:38:18;739.60;;;658.90;;
52067;SDS011;60237;52.338;21.228;2023-08-07T01:40:46;736.97;;;657.75;;
52067;SDS011;60237;52.338;21.228;2023-08-07T01:43:14;717.85;;;640.75;;
52067;SDS011;60237;52.338;21.228;2023-08-07T01:45:40;727.60;;;647.30;;
52067;SDS011;60237;52.338;21.228;2023-08-07T01:48:07;727.22;;;647.30;;
52067;SDS011;60237;52.338;21.228;2023-08-07T01:50:34;733.10;;;651.97;;
52067;SDS011;60237;52.338;21.228;2023-08-07T01:53:02;753.90;;;670.03;;
52067;SDS011;60237;52.338;21.228;2023-08-07T01:55:29;740.17;;;661.10;;
52067;SDS011;60237;52.338;21.228;2023-08-07T01:57:55;723.25;;;644.20;;
52067;SDS011;60237;52.338;21.228;2023-08-07T02:03:22;737.40;;;657.88;;
52067;SDS011;60237;52.338;21.228;2023-08-07T02:05:49;727.45;;;648.22;;
52067;SDS011;60237;52.338;21.228;2023-08-07T02:08:16;743.33;;;662.80;;
52067;SDS011;60237;52.338;21.228;2023-08-07T02:10:43;734.67;;;655.13;;
52067;SDS011;60237;52.338;21.228;2023-08-07T02:13:10;757.45;;;676.08;;
52067;SDS011;60237;52.338;21.228;2023-08-07T02:15:36;733.53;;;653.95;;
52067;SDS011;60237;52.338;21.228;2023-08-07T02:18:03;727.03;;;648.85;;
52067;SDS011;60237;52.338;21.228;2023-08-07T02:20:30;733.42;;;653.55;;
52067;SDS011;60237;52.338;21.228;2023-08-07T02:22:57;754.92;;;658.05;;
52067;SDS011;60237;52.338;21.228;2023-08-07T02:25:25;734.95;;;657.05;;
52067;SDS011;60237;52.338;21.228;2023-08-07T02:27:52;717.53;;;639.28;;
52067;SDS011;60237;52.338;21.228;2023-08-07T02:30:18;727.55;;;647.90;;
52067;SDS011;60237;52.338;21.228;2023-08-07T02:32:45;721.10;;;641.83;;
52067;SDS011;60237;52.338;21.228;2023-08-07T02:35:12;728.65;;;648.47;;
52067;SDS011;60237;52.338;21.228;2023-08-07T02:37:39;732.20;;;651.72;;
52067;SDS011;60237;52.338;21.228;2023-08-07T02:40:06;736.45;;;655.97;;
52067;SDS011;60237;52.338;21.228;2023-08-07T02:42:32;737.95;;;656.90;;
52067;SDS011;60237;52.338;21.228;2023-08-07T02:44:59;729.58;;;631.88;;
52067;SDS011;60237;52.338;21.228;2023-08-07T02:47:26;730.58;;;651.50;;
52067;SDS011;60237;52.338;21.228;2023-08-07T02:49:52;740.60;;;651.88;;
52067;SDS011;60237;52.338;21.228;2023-08-07T02:52:19;734.55;;;654.25;;
52067;SDS011;60237;52.338;21.228;2023-08-07T02:54:45;715.90;;;633.05;;
52067;SDS011;60237;52.338;21.228;2023-08-07T02:57:12;721.70;;;636.75;;
52067;SDS011;60237;52.338;21.228;2023-08-07T02:59:39;729.60;;;651.00;;
52067;SDS011;60237;52.338;21.228;2023-08-07T03:02:05;741.22;;;642.13;;
52067;SDS011;60237;52.338;21.228;2023-08-07T03:04:32;711.47;;;633.63;;
52067;SDS011;60237;52.338;21.228;2023-08-07T03:06:59;720.97;;;640.63;;
52067;SDS011;60237;52.338;21.228;2023-08-07T03:09:26;719.92;;;641.28;;
52067;SDS011;60237;52.338;21.228;2023-08-07T03:11:52;714.55;;;635.75;;
52067;SDS011;60237;52.338;21.228;2023-08-07T03:14:19;730.28;;;649.92;;
52067;SDS011;60237;52.338;21.228;2023-08-07T03:16:45;732.33;;;653.53;;
52067;SDS011;60237;52.338;21.228;2023-08-07T03:19:12;737.22;;;656.65;;
52067;SDS011;60237;52.338;21.228;2023-08-07T03:21:39;724.22;;;645.20;;
52067;SDS011;60237;52.338;21.228;2023-08-07T03:24:05;735.90;;;653.65;;
52067;SDS011;60237;52.338;21.228;2023-08-07T03:26:32;727.97;;;636.17;;
52067;SDS011;60237;52.338;21.228;2023-08-07T03:28:59;733.35;;;634.55;;
52067;SDS011;60237;52.338;21.228;2023-08-07T03:31:25;715.72;;;637.55;;
52067;SDS011;60237;52.338;21.228;2023-08-07T03:33:52;729.60;;;649.72;;
52067;SDS011;60237;52.338;21.228;2023-08-07T03:36:21;710.05;;;629.95;;
52067;SDS011;60237;52.338;21.228;2023-08-07T03:38:48;713.40;;;634.97;;
52067;SDS011;60237;52.338;21.228;2023-08-07T03:41:14;715.50;;;636.70;;
52067;SDS011;60237;52.338;21.228;2023-08-07T03:43:41;708.00;;;630.22;;
52067;SDS011;60237;52.338;21.228;2023-08-07T03:46:09;719.58;;;640.45;;
52067;SDS011;60237;52.338;21.228;2023-08-07T03:48:35;722.50;;;640.03;;
52067;SDS011;60237;52.338;21.228;2023-08-07T03:51:03;714.75;;;630.38;;
52067;SDS011;60237;52.338;21.228;2023-08-07T03:53:33;703.15;;;621.90;;
52067;SDS011;60237;52.338;21.228;2023-08-07T03:55:59;742.03;;;631.17;;
52067;SDS011;60237;52.338;21.228;2023-08-07T03:58:26;726.88;;;647.17;;
52067;SDS011;60237;52.338;21.228;2023-08-07T04:00:53;713.17;;;632.40;;
52067;SDS011;60237;52.338;21.228;2023-08-07T04:03:20;710.47;;;632.50;;
52067;SDS011;60237;52.338;21.228;2023-08-07T04:05:46;731.88;;;651.58;;
52067;SDS011;60237;52.338;21.228;2023-08-07T04:08:13;709.20;;;630.50;;
52067;SDS011;60237;52.338;21.228;2023-08-07T04:10:40;710.92;;;632.88;;
52067;SDS011;60237;52.338;21.228;2023-08-07T04:13:06;744.03;;;644.20;;
52067;SDS011;60237;52.338;21.228;2023-08-07T04:15:33;714.50;;;632.67;;
52067;SDS011;60237;52.338;21.228;2023-08-07T04:17:59;720.88;;;642.40;;
52067;SDS011;60237;52.338;21.228;2023-08-07T04:20:26;726.08;;;634.42;;
52067;SDS011;60237;52.338;21.228;2023-08-07T04:22:53;719.42;;;630.67;;
52067;SDS011;60237;52.338;21.228;2023-08-07T04:25:19;700.95;;;619.65;;
52067;SDS011;60237;52.338;21.228;2023-08-07T04:27:46;712.55;;;634.33;;
52067;SDS011;60237;52.338;21.228;2023-08-07T04:30:12;724.20;;;644.60;;
52067;SDS011;60237;52.338;21.228;2023-08-07T04:32:39;706.53;;;629.28;;
52067;SDS011;60237;52.338;21.228;2023-08-07T04:35:06;732.20;;;647.28;;
52067;SDS011;60237;52.338;21.228;2023-08-07T04:37:32;719.15;;;640.25;;
52067;SDS011;60237;52.338;21.228;2023-08-07T04:39:59;707.53;;;630.63;;
52067;SDS011;60237;52.338;21.228;2023-08-07T04:42:27;716.38;;;638.85;;
52067;SDS011;60237;52.338;21.228;2023-08-07T04:44:54;728.28;;;648.38;;
52067;SDS011;60237;52.338;21.228;2023-08-07T04:47:20;719.47;;;640.30;;
52067;SDS011;60237;52.338;21.228;2023-08-07T04:49:47;728.22;;;649.47;;
52067;SDS011;60237;52.338;21.228;2023-08-07T04:52:13;721.72;;;641.65;;
52067;SDS011;60237;52.338;21.228;2023-08-07T04:54:51;716.58;;;638.90;;
52067;SDS011;60237;52.338;21.228;2023-08-07T04:57:18;729.53;;;649.80;;
52067;SDS011;60237;52.338;21.228;2023-08-07T04:59:45;721.85;;;643.58;;
52067;SDS011;60237;52.338;21.228;2023-08-07T05:02:11;746.40;;;665.50;;
52067;SDS011;60237;52.338;21.228;2023-08-07T05:04:38;750.17;;;668.50;;
52067;SDS011;60237;52.338;21.228;2023-08-07T05:07:04;740.40;;;659.20;;
52067;SDS011;60237;52.338;21.228;2023-08-07T05:09:31;756.50;;;674.58;;
52067;SDS011;60237;52.338;21.228;2023-08-07T05:11:58;757.78;;;674.63;;
52067;SDS011;60237;52.338;21.228;2023-08-07T05:14:24;756.30;;;674.78;;
52067;SDS011;60237;52.338;21.228;2023-08-07T05:16:51;750.22;;;670.08;;
52067;SDS011;60237;52.338;21.228;2023-08-07T05:19:17;767.22;;;684.55;;
52067;SDS011;60237;52.338;21.228;2023-08-07T05:21:44;763.88;;;683.50;;
52067;SDS011;60237;52.338;21.228;2023-08-07T05:24:10;767.03;;;683.22;;
52067;SDS011;60237;52.338;21.228;2023-08-07T05:26:38;770.47;;;688.75;;
52067;SDS011;60237;52.338;21.228;2023-08-07T05:29:05;782.13;;;689.40;;
52067;SDS011;60237;52.338;21.228;2023-08-07T05:31:33;771.25;;;691.92;;
52067;SDS011;60237;52.338;21.228;2023-08-07T05:34:00;767.40;;;687.88;;
52067;SDS011;60237;52.338;21.228;2023-08-07T05:36:26;770.42;;;689.47;;
52067;SDS011;60237;52.338;21.228;2023-08-07T05:38:53;773.50;;;692.35;;
52067;SDS011;60237;52.338;21.228;2023-08-07T05:41:20;764.67;;;684.92;;
52067;SDS011;60237;52.338;21.228;2023-08-07T05:43:46;769.63;;;687.90;;
52067;SDS011;60237;52.338;21.228;2023-08-07T05:46:13;753.15;;;673.28;;
52067;SDS011;60237;52.338;21.228;2023-08-07T05:48:39;751.05;;;670.60;;
52067;SDS011;60237;52.338;21.228;2023-08-07T05:51:06;751.10;;;669.80;;
52067;SDS011;60237;52.338;21.228;2023-08-07T05:53:34;743.10;;;663.42;;
52067;SDS011;60237;52.338;21.228;2023-08-07T05:56:01;758.28;;;677.05;;
52067;SDS011;60237;52.338;21.228;2023-08-07T05:58:28;744.20;;;663.67;;
52067;SDS011;60237;52.338;21.228;2023-08-07T06:00:54;749.60;;;670.30;;
52067;SDS011;60237;52.338;21.228;2023-08-07T06:03:21;740.42;;;662.63;;
52067;SDS011;60237;52.338;21.228;2023-08-07T06:05:47;752.17;;;673.55;;
52067;SDS011;60237;52.338;21.228;2023-08-07T06:08:14;753.95;;;674.20;;
52067;SDS011;60237;52.338;21.228;2023-08-07T06:10:40;744.90;;;665.35;;
52067;SDS011;60237;52.338;21.228;2023-08-07T06:13:07;767.88;;;687.60;;
52067;SDS011;60237;52.338;21.228;2023-08-07T06:15:40;744.65;;;665.45;;
52067;SDS011;60237;52.338;21.228;2023-08-07T06:18:06;757.83;;;677.80;;
52067;SDS011;60237;52.338;21.228;2023-08-07T06:20:33;752.72;;;672.08;;
52067;SDS011;60237;52.338;21.228;2023-08-07T06:23:00;755.45;;;674.15;;
52067;SDS011;60237;52.338;21.228;2023-08-07T06:25:27;759.30;;;681.88;;
52067;SDS011;60237;52.338;21.228;2023-08-07T06:27:54;778.15;;;698.30;;
52067;SDS011;60237;52.338;21.228;2023-08-07T06:30:20;791.90;;;711.08;;
52067;SDS011;60237;52.338;21.228;2023-08-07T06:32:47;789.67;;;709.67;;
52067;SDS011;60237;52.338;21.228;2023-08-07T06:35:13;803.13;;;719.85;;
52067;SDS011;60237;52.338;21.228;2023-08-07T06:37:40;803.53;;;722.40;;
52067;SDS011;60237;52.338;21.228;2023-08-07T06:40:07;789.33;;;708.47;;
52067;SDS011;60237;52.338;21.228;2023-08-07T06:42:34;782.70;;;703.00;;
52067;SDS011;60237;52.338;21.228;2023-08-07T06:45:00;800.42;;;717.83;;
52067;SDS011;60237;52.338;21.228;2023-08-07T06:47:27;781.42;;;701.03;;
52067;SDS011;60237;52.338;21.228;2023-08-07T06:49:54;794.60;;;712.65;;
52067;SDS011;60237;52.338;21.228;2023-08-07T06:52:20;773.85;;;692.97;;
52067;SDS011;60237;52.338;21.228;2023-08-07T06:54:47;766.13;;;685.78;;
52067;SDS011;60237;52.338;21.228;2023-08-07T06:57:13;764.97;;;684.65;;
52067;SDS011;60237;52.338;21.228;2023-08-07T06:59:40;764.70;;;683.92;;
52067;SDS011;60237;52.338;21.228;2023-08-07T07:02:06;759.90;;;675.88;;
52067;SDS011;60237;52.338;21.228;2023-08-07T07:04:33;784.42;;;702.47;;
52067;SDS011;60237;52.338;21.228;2023-08-07T07:07:00;771.92;;;690.45;;
52067;SDS011;60237;52.338;21.228;2023-08-07T07:09:26;774.20;;;693.60;;
52067;SDS011;60237;52.338;21.228;2023-08-07T07:11:55;773.40;;;692.45;;
52067;SDS011;60237;52.338;21.228;2023-08-07T07:14:23;749.78;;;669.50;;
52067;SDS011;60237;52.338;21.228;2023-08-07T07:16:49;772.05;;;692.08;;
52067;SDS011;60237;52.338;21.228;2023-08-07T07:19:16;772.28;;;691.97;;
52067;SDS011;60237;52.338;21.228;2023-08-07T07:21:43;815.40;;;731.25;;
52067;SDS011;60237;52.338;21.228;2023-08-07T07:24:09;811.67;;;726.17;;
52067;SDS011;60237;52.338;21.228;2023-08-07T07:26:36;801.78;;;719.95;;
52067;SDS011;60237;52.338;21.228;2023-08-07T07:29:02;811.58;;;726.05;;
52067;SDS011;60237;52.338;21.228;2023-08-07T07:31:29;798.08;;;717.38;;
52067;SDS011;60237;52.338;21.228;2023-08-07T07:33:55;801.00;;;720.08;;
52067;SDS011;60237;52.338;21.228;2023-08-07T07:36:22;788.13;;;707.10;;
52067;SDS011;60237;52.338;21.228;2023-08-07T07:38:49;791.92;;;712.70;;
52067;SDS011;60237;52.338;21.228;2023-08-07T07:41:15;814.88;;;731.17;;
52067;SDS011;60237;52.338;21.228;2023-08-07T07:43:42;808.42;;;725.20;;
52067;SDS011;60237;52.338;21.228;2023-08-07T07:46:09;820.03;;;736.63;;
52067;SDS011;60237;52.338;21.228;2023-08-07T07:48:36;808.67;;;727.80;;
52067;SDS011;60237;52.338;21.228;2023-08-07T07:51:03;816.42;;;733.95;;
52067;SDS011;60237;52.338;21.228;2023-08-07T07:53:30;801.53;;;721.35;;
52067;SDS011;60237;52.338;21.228;2023-08-07T07:55:57;808.63;;;724.45;;
52067;SDS011;60237;52.338;21.228;2023-08-07T07:58:23;814.85;;;732.15;;
52067;SDS011;60237;52.338;21.228;2023-08-07T08:00:50;810.75;;;728.70;;
52067;SDS011;60237;52.338;21.228;2023-08-07T08:03:20;813.55;;;730.15;;
52067;SDS011;60237;52.338;21.228;2023-08-07T08:05:50;813.65;;;732.40;;
52067;SDS011;60237;52.338;21.228;2023-08-07T08:08:17;815.25;;;732.15;;
52067;SDS011;60237;52.338;21.228;2023-08-07T08:10:45;812.10;;;730.38;;
52067;SDS011;60237;52.338;21.228;2023-08-07T08:13:14;807.58;;;723.92;;
52067;SDS011;60237;52.338;21.228;2023-08-07T08:15:40;810.17;;;729.25;;
52067;SDS011;60237;52.338;21.228;2023-08-07T08:18:07;841.47;;;757.67;;
52067;SDS011;60237;52.338;21.228;2023-08-07T08:20:34;842.30;;;757.95;;
52067;SDS011;60237;52.338;21.228;2023-08-07T08:23:01;852.55;;;765.20;;
52067;SDS011;60237;52.338;21.228;2023-08-07T08:25:27;845.92;;;763.00;;
52067;SDS011;60237;52.338;21.228;2023-08-07T08:27:54;851.42;;;768.28;;
52067;SDS011;60237;52.338;21.228;2023-08-07T08:30:20;837.92;;;756.17;;
52067;SDS011;60237;52.338;21.228;2023-08-07T08:32:47;839.65;;;756.72;;
52067;SDS011;60237;52.338;21.228;2023-08-07T08:35:14;851.05;;;765.70;;
52067;SDS011;60237;52.338;21.228;2023-08-07T08:37:40;828.88;;;746.85;;
52067;SDS011;60237;52.338;21.228;2023-08-07T08:40:08;815.75;;;732.92;;
52067;SDS011;60237;52.338;21.228;2023-08-07T08:42:35;800.90;;;719.42;;
52067;SDS011;60237;52.338;21.228;2023-08-07T08:45:03;817.83;;;734.47;;
52067;SDS011;60237;52.338;21.228;2023-08-07T08:47:30;795.10;;;713.75;;
52067;SDS011;60237;52.338;21.228;2023-08-07T08:50:00;810.78;;;724.58;;
52067;SDS011;60237;52.338;21.228;2023-08-07T08:52:28;798.67;;;718.53;;
52067;SDS011;60237;52.338;21.228;2023-08-07T08:54:56;791.20;;;710.35;;
52067;SDS011;60237;52.338;21.228;2023-08-07T08:57:23;825.60;;;741.58;;
52067;SDS011;60237;52.338;21.228;2023-08-07T08:59:50;808.50;;;727.72;;
52067;SDS011;60237;52.338;21.228;2023-08-07T09:02:17;838.17;;;754.30;;
52067;SDS011;60237;52.338;21.228;2023-08-07T09:04:44;840.45;;;757.22;;
52067;SDS011;60237;52.338;21.228;2023-08-07T09:07:11;851.80;;;767.75;;
52067;SDS011;60237;52.338;21.228;2023-08-07T09:09:39;861.05;;;777.03;;
52067;SDS011;60237;52.338;21.228;2023-08-07T09:12:08;862.53;;;778.42;;
52067;SDS011;60237;52.338;21.228;2023-08-07T09:14:39;846.15;;;762.85;;
52067;SDS011;60237;52.338;21.228;2023-08-07T09:17:07;852.30;;;767.05;;
52067;SDS011;60237;52.338;21.228;2023-08-07T09:19:34;858.13;;;774.75;;
52067;SDS011;60237;52.338;21.228;2023-08-07T09:22:01;853.85;;;771.42;;
52067;SDS011;60237;52.338;21.228;2023-08-07T09:24:27;860.25;;;775.10;;
52067;SDS011;60237;52.338;21.228;2023-08-07T09:26:54;857.85;;;775.00;;
52067;SDS011;60237;52.338;21.228;2023-08-07T09:29:22;858.65;;;775.45;;
52067;SDS011;60237;52.338;21.228;2023-08-07T09:31:48;856.80;;;774.60;;
52067;SDS011;60237;52.338;21.228;2023-08-07T09:34:15;852.97;;;769.33;;
52067;SDS011;60237;52.338;21.228;2023-08-07T09:36:45;849.10;;;766.70;;
52067;SDS011;60237;52.338;21.228;2023-08-07T09:39:12;862.83;;;775.45;;
52067;SDS011;60237;52.338;21.228;2023-08-07T09:41:38;855.78;;;772.35;;
52067;SDS011;60237;52.338;21.228;2023-08-07T09:44:09;871.63;;;784.33;;
52067;SDS011;60237;52.338;21.228;2023-08-07T09:46:40;872.85;;;789.33;;
52067;SDS011;60237;52.338;21.228;2023-08-07T09:49:07;894.42;;;808.47;;
52067;SDS011;60237;52.338;21.228;2023-08-07T09:51:43;891.70;;;807.25;;
52067;SDS011;60237;52.338;21.228;2023-08-07T09:54:10;902.05;;;814.15;;
52067;SDS011;60237;52.338;21.228;2023-08-07T09:56:38;901.58;;;816.85;;
52067;SDS011;60237;52.338;21.228;2023-08-07T09:59:05;937.95;;;846.90;;
52067;SDS011;60237;52.338;21.228;2023-08-07T10:01:32;908.10;;;821.30;;
52067;SDS011;60237;52.338;21.228;2023-08-07T10:03:59;910.25;;;826.85;;
52067;SDS011;60237;52.338;21.228;2023-08-07T10:06:26;902.60;;;817.25;;
52067;SDS011;60237;52.338;21.228;2023-08-07T10:08:53;886.47;;;802.90;;
52067;SDS011;60237;52.338;21.228;2023-08-07T10:11:20;894.33;;;809.38;;
52067;SDS011;60237;52.338;21.228;2023-08-07T10:13:47;887.75;;;803.75;;
52067;SDS011;60237;52.338;21.228;2023-08-07T10:16:14;903.22;;;818.30;;
52067;SDS011;60237;52.338;21.228;2023-08-07T10:18:40;909.00;;;823.80;;
52067;SDS011;60237;52.338;21.228;2023-08-07T10:21:07;914.78;;;827.83;;
52067;SDS011;60237;52.338;21.228;2023-08-07T10:23:36;901.25;;;815.17;;
52067;SDS011;60237;52.338;21.228;2023-08-07T10:26:05;914.28;;;825.70;;
52067;SDS011;60237;52.338;21.228;2023-08-07T10:28:32;909.35;;;823.17;;
52067;SDS011;60237;52.338;21.228;2023-08-07T10:30:59;916.58;;;830.92;;
52067;SDS011;60237;52.338;21.228;2023-08-07T10:33:26;914.00;;;828.38;;
52067;SDS011;60237;52.338;21.228;2023-08-07T10:35:53;925.83;;;839.90;;
52067;SDS011;60237;52.338;21.228;2023-08-07T10:38:22;933.30;;;844.97;;
52067;SDS011;60237;52.338;21.228;2023-08-07T10:43:37;926.58;;;840.38;;
52067;SDS011;60237;52.338;21.228;2023-08-07T10:46:04;934.58;;;847.58;;
52067;SDS011;60237;52.338;21.228;2023-08-07T10:48:37;937.92;;;850.80;;
52067;SDS011;60237;52.338;21.228;2023-08-07T10:51:04;944.50;;;857.50;;
52067;SDS011;60237;52.338;21.228;2023-08-07T10:53:31;944.30;;;856.75;;
52067;SDS011;60237;52.338;21.228;2023-08-07T10:56:06;938.30;;;850.50;;
52067;SDS011;60237;52.338;21.228;2023-08-07T10:58:38;942.78;;;856.15;;
52067;SDS011;60237;52.338;21.228;2023-08-07T11:01:20;939.55;;;849.10;;
52067;SDS011;60237;52.338;21.228;2023-08-07T11:03:48;921.28;;;833.67;;
52067;SDS011;60237;52.338;21.228;2023-08-07T11:06:16;943.78;;;855.65;;
52067;SDS011;60237;52.338;21.228;2023-08-07T11:08:42;940.03;;;851.78;;
52067;SDS011;60237;52.338;21.228;2023-08-07T11:11:09;962.30;;;870.92;;
52067;SDS011;60237;52.338;21.228;2023-08-07T11:13:35;958.53;;;869.88;;
52067;SDS011;60237;52.338;21.228;2023-08-07T11:16:02;967.35;;;878.45;;
52067;SDS011;60237;52.338;21.228;2023-08-07T11:18:30;981.47;;;890.35;;
52067;SDS011;60237;52.338;21.228;2023-08-07T11:20:56;978.30;;;889.38;;
52067;SDS011;60237;52.338;21.228;2023-08-07T11:23:23;975.17;;;887.40;;
52067;SDS011;60237;52.338;21.228;2023-08-07T11:25:51;975.47;;;887.90;;
52067;SDS011;60237;52.338;21.228;2023-08-07T11:28:19;976.97;;;888.25;;
52067;SDS011;60237;52.338;21.228;2023-08-07T11:30:49;986.17;;;897.20;;
52067;SDS011;60237;52.338;21.228;2023-08-07T11:33:19;969.38;;;880.72;;
52067;SDS011;60237;52.338;21.228;2023-08-07T11:35:47;963.60;;;875.13;;
52067;SDS011;60237;52.338;21.228;2023-08-07T11:38:16;967.92;;;875.40;;
52067;SDS011;60237;52.338;21.228;2023-08-07T11:40:54;951.05;;;863.60;;
52067;SDS011;60237;52.338;21.228;2023-08-07T11:43:22;945.25;;;857.17;;
52067;SDS011;60237;52.338;21.228;2023-08-07T11:45:49;943.58;;;856.65;;
52067;SDS011;60237;52.338;21.228;2023-08-07T11:48:16;935.60;;;846.92;;
52067;SDS011;60237;52.338;21.228;2023-08-07T11:50:43;930.13;;;843.33;;
52067;SDS011;60237;52.338;21.228;2023-08-07T11:53:09;965.10;;;872.20;;
52067;SDS011;60237;52.338;21.228;2023-08-07T11:55:37;940.28;;;853.65;;
52067;SDS011;60237;52.338;21.228;2023-08-07T11:58:12;952.83;;;865.53;;
52067;SDS011;60237;52.338;21.228;2023-08-07T12:00:41;966.50;;;878.85;;
52067;SDS011;60237;52.338;21.228;2023-08-07T12:03:22;980.30;;;889.97;;
52067;SDS011;60237;52.338;21.228;2023-08-07T12:05:49;979.75;;;890.97;;
52067;SDS011;60237;52.338;21.228;2023-08-07T12:08:16;999.40;;;907.42;;
52067;SDS011;60237;52.338;21.228;2023-08-07T12:10:43;1003.90;;;913.50;;
52067;SDS011;60237;52.338;21.228;2023-08-07T12:13:09;1012.63;;;920.65;;
52067;SDS011;60237;52.338;21.228;2023-08-07T12:15:38;1007.40;;;917.92;;
52067;SDS011;60237;52.338;21.228;2023-08-07T12:18:06;1021.80;;;929.58;;
52067;SDS011;60237;52.338;21.228;2023-08-07T12:20:33;996.53;;;906.55;;
52067;SDS011;60237;52.338;21.228;2023-08-07T12:23:00;988.38;;;895.60;;
52067;SDS011;60237;52.338;21.228;2023-08-07T12:25:26;986.10;;;897.53;;
52067;SDS011;60237;52.338;21.228;2023-08-07T12:27:53;981.92;;;892.65;;
52067;SDS011;60237;52.338;21.228;2023-08-07T12:30:19;976.65;;;887.65;;
52067;SDS011;60237;52.338;21.228;2023-08-07T12:32:46;965.00;;;876.63;;
52067;SDS011;60237;52.338;21.228;2023-08-07T12:35:12;968.80;;;875.33;;
52067;SDS011;60237;52.338;21.228;2023-08-07T12:37:41;943.25;;;856.95;;
52067;SDS011;60237;52.338;21.228;2023-08-07T12:40:07;946.20;;;858.33;;
52067;SDS011;60237;52.338;21.228;2023-08-07T12:42:37;935.92;;;847.90;;
52067;SDS011;60237;52.338;21.228;2023-08-07T12:45:04;924.80;;;838.58;;
52067;SDS011;60237;52.338;21.228;2023-08-07T12:47:30;928.90;;;840.58;;
52067;SDS011;60237;52.338;21.228;2023-08-07T12:49:57;919.78;;;833.03;;
52067;SDS011;60237;52.338;21.228;2023-08-07T12:52:26;914.13;;;827.92;;
52067;SDS011;60237;52.338;21.228;2023-08-07T12:54:53;905.70;;;821.85;;
52067;SDS011;60237;52.338;21.228;2023-08-07T12:57:19;902.10;;;817.05;;
52067;SDS011;60237;52.338;21.228;2023-08-07T12:59:46;912.83;;;826.28;;
52067;SDS011;60237;52.338;21.228;2023-08-07T13:02:13;927.75;;;837.40;;
52067;SDS011;60237;52.338;21.228;2023-08-07T13:04:39;932.28;;;845.70;;
52067;SDS011;60237;52.338;21.228;2023-08-07T13:07:06;934.55;;;848.03;;
52067;SDS011;60237;52.338;21.228;2023-08-07T13:09:33;942.20;;;855.03;;
52067;SDS011;60237;52.338;21.228;2023-08-07T13:12:00;945.13;;;858.08;;
52067;SDS011;60237;52.338;21.228;2023-08-07T13:14:26;948.80;;;860.97;;
52067;SDS011;60237;52.338;21.228;2023-08-07T13:16:53;943.13;;;856.72;;
52067;SDS011;60237;52.338;21.228;2023-08-07T13:19:20;939.75;;;852.90;;
52067;SDS011;60237;52.338;21.228;2023-08-07T13:21:47;948.67;;;861.03;;
52067;SDS011;60237;52.338;21.228;2023-08-07T13:24:13;952.50;;;861.30;;
52067;SDS011;60237;52.338;21.228;2023-08-07T13:26:43;947.63;;;860.10;;
52067;SDS011;60237;52.338;21.228;2023-08-07T13:29:12;967.38;;;876.15;;
52067;SDS011;60237;52.338;21.228;2023-08-07T13:31:39;958.85;;;870.60;;
52067;SDS011;60237;52.338;21.228;2023-08-07T13:34:07;965.20;;;876.08;;
52067;SDS011;60237;52.338;21.228;2023-08-07T13:36:35;968.15;;;879.55;;
52067;SDS011;60237;52.338;21.228;2023-08-07T13:39:02;951.78;;;865.88;;
52067;SDS011;60237;52.338;21.228;2023-08-07T13:41:28;974.38;;;885.58;;
52067;SDS011;60237;52.338;21.228;2023-08-07T13:43:55;971.47;;;882.58;;
52067;SDS011;60237;52.338;21.228;2023-08-07T13:46:21;981.30;;;892.28;;
52067;SDS011;60237;52.338;21.228;2023-08-07T13:48:51;971.38;;;883.78;;
52067;SDS011;60237;52.338;21.228;2023-08-07T13:51:19;976.90;;;888.30;;
52067;SDS011;60237;52.338;21.228;2023-08-07T13:53:47;966.78;;;878.45;;
52067;SDS011;60237;52.338;21.228;2023-08-07T13:56:14;972.95;;;882.10;;